sensor_id;sensor_type;location;lat;lon;timestamp;pressure;altitude;pressure_sealevel;temperature;humidity
40013;BME280;37387;42.672;23.334;2022-07-06T00:01:19;944.2;;;18.9;100.0
40013;BME280;37387;42.672;23.334;2022-07-06T00:03:19;944.2;;;18.8;100.0
40013;BME280;37387;42.672;23.334;2022-07-06T00:07:19;944.2;;;18.9;100.0
40013;BME280;37387;42.672;23.334;2022-07-06T00:08:19;944.2;;;18.8;100.0
40013;BME280;37387;42.672;23.334;2022-07-06T00:11:19;944.2;;;18.7;100.0
40013;BME280;37387;42.672;23.334;2022-07-06T00:14:19;944.2;;;18.6;100.0
40013;BME280;37387;42.672;23.334;2022-07-06T00:15:19;944.2;;;18.7;100.0
40013;BME280;37387;42.672;23.334;2022-07-06T00:20:19;944.4;;;18.8;100.0
40013;BME280;37387;42.672;23.334;2022-07-06T00:22:19;944.5;;;18.9;100.0
40013;BME280;37387;42.672;23.334;2022-07-06T00:23:19;944.5;;;19.0;100.0
40013;BME280;37387;42.672;23.334;2022-07-06T00:26:19;944.6;;;19.1;100.0
40013;BME280;37387;42.672;23.334;2022-07-06T00:29:19;944.7;;;19.2;100.0
40013;BME280;37387;42.672;23.334;2022-07-06T00:31:19;944.8;;;19.3;100.0
40013;BME280;37387;42.672;23.334;2022-07-06T00:34:19;944.8;;;19.4;100.0
40013;BME280;37387;42.672;23.334;2022-07-06T00:37:19;944.8;;;19.5;100.0
40013;BME280;37387;42.672;23.334;2022-07-06T00:39:19;944.8;;;19.4;100.0
40013;BME280;37387;42.672;23.334;2022-07-06T00:40:19;944.8;;;19.3;100.0
40013;BME280;37387;42.672;23.334;2022-07-06T00:42:19;944.9;;;19.4;100.0
40013;BME280;37387;42.672;23.334;2022-07-06T00:44:19;944.8;;;19.5;100.0
40013;BME280;37387;42.672;23.334;2022-07-06T00:50:19;944.8;;;19.6;100.0
40013;BME280;37387;42.672;23.334;2022-07-06T00:52:19;944.8;;;19.5;100.0
40013;BME280;37387;42.672;23.334;2022-07-06T00:56:19;944.7;;;19.4;100.0
40013;BME280;37387;42.672;23.334;2022-07-06T00:58:19;944.7;;;19.3;100.0
40013;BME280;37387;42.672;23.334;2022-07-06T00:59:19;944.7;;;19.4;100.0
40013;BME280;37387;42.672;23.334;2022-07-06T01:00:19;944.6;;;19.3;100.0
40013;BME280;37387;42.672;23.334;2022-07-06T01:01:19;944.6;;;19.4;100.0
40013;BME280;37387;42.672;23.334;2022-07-06T01:07:19;944.4;;;19.3;100.0
40013;BME280;37387;42.672;23.334;2022-07-06T01:08:19;944.3;;;19.2;100.0
40013;BME280;37387;42.672;23.334;2022-07-06T01:13:19;944.3;;;19.3;100.0
40013;BME280;37387;42.672;23.334;2022-07-06T01:16:19;944.3;;;19.4;100.0
40013;BME280;37387;42.672;23.334;2022-07-06T01:23:19;944.2;;;19.3;100.0
40013;BME280;37387;42.672;23.334;2022-07-06T01:24:19;944.3;;;19.4;100.0
40013;BME280;37387;42.672;23.334;2022-07-06T01:26:20;944.2;;;19.3;100.0
40013;BME280;37387;42.672;23.334;2022-07-06T01:29:19;944.3;;;19.2;100.0
40013;BME280;37387;42.672;23.334;2022-07-06T01:36:19;944.3;;;19.1;100.0
40013;BME280;37387;42.672;23.334;2022-07-06T01:43:19;944.3;;;19.0;100.0
40013;BME280;37387;42.672;23.334;2022-07-06T01:47:19;944.3;;;18.9;100.0
40013;BME280;37387;42.672;23.334;2022-07-06T01:52:19;944.4;;;18.8;100.0
40013;BME280;37387;42.672;23.334;2022-07-06T01:58:19;944.5;;;18.7;100.0
40013;BME280;37387;42.672;23.334;2022-07-06T02:02:19;944.5;;;18.6;100.0
40013;BME280;37387;42.672;23.334;2022-07-06T02:03:19;944.5;;;18.5;100.0
40013;BME280;37387;42.672;23.334;2022-07-06T02:07:19;944.5;;;18.4;100.0
40013;BME280;37387;42.672;23.334;2022-07-06T02:09:19;944.5;;;18.5;100.0
40013;BME280;37387;42.672;23.334;2022-07-06T02:10:19;944.5;;;18.4;100.0
40013;BME280;37387;42.672;23.334;2022-07-06T02:15:19;944.4;;;18.3;100.0
40013;BME280;37387;42.672;23.334;2022-07-06T02:16:19;944.5;;;18.4;100.0
40013;BME280;37387;42.672;23.334;2022-07-06T02:27:19;944.5;;;18.3;100.0
40013;BME280;37387;42.672;23.334;2022-07-06T02:42:19;944.5;;;18.2;100.0
40013;BME280;37387;42.672;23.334;2022-07-06T02:51:19;944.4;;;18.3;100.0
40013;BME280;37387;42.672;23.334;2022-07-06T02:57:19;944.5;;;18.4;100.0
40013;BME280;37387;42.672;23.334;2022-07-06T02:59:19;944.5;;;18.3;100.0
40013;BME280;37387;42.672;23.334;2022-07-06T03:04:19;944.5;;;18.2;100.0
40013;BME280;37387;42.672;23.334;2022-07-06T03:07:19;944.4;;;18.1;100.0
40013;BME280;37387;42.672;23.334;2022-07-06T03:14:19;944.5;;;18.2;100.0
40013;BME280;37387;42.672;23.334;2022-07-06T03:19:19;944.5;;;18.3;100.0
40013;BME280;37387;42.672;23.334;2022-07-06T03:23:19;944.6;;;18.1;100.0
40013;BME280;37387;42.672;23.334;2022-07-06T03:24:19;944.5;;;18.3;100.0
40013;BME280;37387;42.672;23.334;2022-07-06T03:27:19;944.6;;;18.4;100.0
40013;BME280;37387;42.672;23.334;2022-07-06T03:32:19;944.7;;;18.5;100.0
40013;BME280;37387;42.672;23.334;2022-07-06T03:35:19;944.7;;;18.6;100.0
40013;BME280;37387;42.672;23.334;2022-07-06T03:38:19;944.8;;;18.7;100.0
40013;BME280;37387;42.672;23.334;2022-07-06T03:40:19;944.7;;;18.8;100.0
40013;BME280;37387;42.672;23.334;2022-07-06T03:42:19;944.8;;;18.7;100.0
40013;BME280;37387;42.672;23.334;2022-07-06T03:44:19;944.7;;;18.8;100.0
40013;BME280;37387;42.672;23.334;2022-07-06T03:46:19;944.7;;;18.9;100.0
40013;BME280;37387;42.672;23.334;2022-07-06T03:48:19;944.7;;;18.8;100.0
40013;BME280;37387;42.672;23.334;2022-07-06T03:52:19;944.7;;;18.9;100.0
40013;BME280;37387;42.672;23.334;2022-07-06T03:54:19;944.7;;;19.0;100.0
40013;BME280;37387;42.672;23.334;2022-07-06T03:59:19;944.7;;;18.9;100.0
40013;BME280;37387;42.672;23.334;2022-07-06T04:01:19;944.7;;;19.0;100.0
40013;BME280;37387;42.672;23.334;2022-07-06T04:03:19;944.7;;;19.1;100.0
40013;BME280;37387;42.672;23.334;2022-07-06T04:05:19;944.7;;;19.2;100.0
40013;BME280;37387;42.672;23.334;2022-07-06T04:06:19;944.7;;;19.4;100.0
40013;BME280;37387;42.672;23.334;2022-07-06T04:07:19;944.8;;;19.8;100.0
40013;BME280;37387;42.672;23.334;2022-07-06T04:08:19;944.8;;;20.5;100.0
40013;BME280;37387;42.672;23.334;2022-07-06T04:09:19;944.7;;;21.1;100.0
40013;BME280;37387;42.672;23.334;2022-07-06T04:10:19;944.6;;;21.7;100.0
40013;BME280;37387;42.672;23.334;2022-07-06T04:11:19;944.7;;;22.2;100.0
40013;BME280;37387;42.672;23.334;2022-07-06T04:12:19;944.7;;;22.7;100.0
40013;BME280;37387;42.672;23.334;2022-07-06T04:13:19;944.7;;;23.4;94.7
40013;BME280;37387;42.672;23.334;2022-07-06T04:14:19;944.7;;;23.6;90.1
40013;BME280;37387;42.672;23.334;2022-07-06T04:15:19;944.7;;;23.4;85.1
40013;BME280;37387;42.672;23.334;2022-07-06T04:16:19;944.7;;;23.9;84.5
40013;BME280;37387;42.672;23.334;2022-07-06T04:17:19;944.7;;;24.5;80.7
40013;BME280;37387;42.672;23.334;2022-07-06T04:18:19;944.7;;;24.6;80.7
40013;BME280;37387;42.672;23.334;2022-07-06T04:19:19;944.7;;;25.1;75.2
40013;BME280;37387;42.672;23.334;2022-07-06T04:20:19;944.7;;;25.5;75.2
40013;BME280;37387;42.672;23.334;2022-07-06T04:21:19;944.7;;;25.6;72.6
40013;BME280;37387;42.672;23.334;2022-07-06T04:22:19;944.8;;;25.7;73.0
40013;BME280;37387;42.672;23.334;2022-07-06T04:23:19;944.8;;;24.9;71.0
40013;BME280;37387;42.672;23.334;2022-07-06T04:24:19;944.7;;;24.4;75.3
40013;BME280;37387;42.672;23.334;2022-07-06T04:25:19;944.7;;;24.6;73.8
40013;BME280;37387;42.672;23.334;2022-07-06T04:27:19;944.7;;;25.0;75.3
40013;BME280;37387;42.672;23.334;2022-07-06T04:28:19;944.7;;;24.8;73.5
40013;BME280;37387;42.672;23.334;2022-07-06T04:29:19;944.7;;;25.1;73.6
40013;BME280;37387;42.672;23.334;2022-07-06T04:31:19;944.7;;;24.5;69.5
40013;BME280;37387;42.672;23.334;2022-07-06T04:32:19;944.7;;;24.0;73.8
40013;BME280;37387;42.672;23.334;2022-07-06T04:33:19;944.7;;;23.5;75.0
40013;BME280;37387;42.672;23.334;2022-07-06T04:34:19;944.7;;;23.2;78.2
40013;BME280;37387;42.672;23.334;2022-07-06T04:35:19;944.7;;;23.4;79.9
40013;BME280;37387;42.672;23.334;2022-07-06T04:36:19;944.8;;;23.9;79.3
40013;BME280;37387;42.672;23.334;2022-07-06T04:37:19;944.8;;;24.5;77.2
40013;BME280;37387;42.672;23.334;2022-07-06T04:38:19;944.8;;;24.0;74.5
40013;BME280;37387;42.672;23.334;2022-07-06T04:39:19;944.8;;;24.4;75.0
40013;BME280;37387;42.672;23.334;2022-07-06T04:40:19;944.8;;;25.1;73.6
40013;BME280;37387;42.672;23.334;2022-07-06T04:41:19;944.9;;;24.9;71.5
40013;BME280;37387;42.672;23.334;2022-07-06T04:42:19;944.9;;;24.2;72.0
40013;BME280;37387;42.672;23.334;2022-07-06T04:43:19;944.9;;;24.5;75.2
40013;BME280;37387;42.672;23.334;2022-07-06T04:44:19;944.9;;;24.8;74.1
40013;BME280;37387;42.672;23.334;2022-07-06T04:45:19;944.9;;;25.3;72.7
40013;BME280;37387;42.672;23.334;2022-07-06T04:46:19;945.0;;;25.6;70.5
40013;BME280;37387;42.672;23.334;2022-07-06T04:47:19;945.0;;;25.3;69.3
40013;BME280;37387;42.672;23.334;2022-07-06T04:48:19;945.0;;;25.1;69.3
40013;BME280;37387;42.672;23.334;2022-07-06T04:49:19;945.1;;;24.2;70.0
40013;BME280;37387;42.672;23.334;2022-07-06T04:50:19;945.0;;;23.0;79.8
40013;BME280;37387;42.672;23.334;2022-07-06T04:51:19;945.0;;;22.9;79.8
40013;BME280;37387;42.672;23.334;2022-07-06T04:52:19;945.0;;;22.6;81.4
40013;BME280;37387;42.672;23.334;2022-07-06T04:53:19;945.1;;;22.5;85.8
40013;BME280;37387;42.672;23.334;2022-07-06T04:54:19;945.1;;;22.2;85.8
40013;BME280;37387;42.672;23.334;2022-07-06T04:55:19;945.2;;;21.6;87.4
40013;BME280;37387;42.672;23.334;2022-07-06T04:56:19;945.2;;;21.3;90.6
40013;BME280;37387;42.672;23.334;2022-07-06T04:59:19;945.2;;;21.0;94.1
40013;BME280;37387;42.672;23.334;2022-07-06T05:00:19;945.2;;;20.8;94.2
40013;BME280;37387;42.672;23.334;2022-07-06T05:01:19;945.2;;;20.5;99.3
40013;BME280;37387;42.672;23.334;2022-07-06T05:02:19;945.1;;;20.4;99.3
40013;BME280;37387;42.672;23.334;2022-07-06T05:05:19;945.2;;;20.5;100.0
40013;BME280;37387;42.672;23.334;2022-07-06T05:06:19;945.3;;;20.3;100.0
40013;BME280;37387;42.672;23.334;2022-07-06T05:07:19;945.3;;;20.2;100.0
40013;BME280;37387;42.672;23.334;2022-07-06T05:09:19;945.2;;;20.4;100.0
40013;BME280;37387;42.672;23.334;2022-07-06T05:11:19;945.2;;;20.3;100.0
40013;BME280;37387;42.672;23.334;2022-07-06T05:12:19;945.2;;;20.4;100.0
40013;BME280;37387;42.672;23.334;2022-07-06T05:13:19;945.3;;;20.2;100.0
40013;BME280;37387;42.672;23.334;2022-07-06T05:14:19;945.2;;;20.3;100.0
40013;BME280;37387;42.672;23.334;2022-07-06T05:15:19;945.3;;;20.5;100.0
40013;BME280;37387;42.672;23.334;2022-07-06T05:17:19;945.3;;;20.4;100.0
40013;BME280;37387;42.672;23.334;2022-07-06T05:19:19;945.3;;;20.3;100.0
40013;BME280;37387;42.672;23.334;2022-07-06T05:20:19;945.3;;;20.2;100.0
40013;BME280;37387;42.672;23.334;2022-07-06T05:21:19;945.3;;;20.1;100.0
40013;BME280;37387;42.672;23.334;2022-07-06T05:23:19;945.4;;;20.3;100.0
40013;BME280;37387;42.672;23.334;2022-07-06T05:24:19;945.4;;;20.5;100.0
40013;BME280;37387;42.672;23.334;2022-07-06T05:25:19;945.4;;;20.6;100.0
40013;BME280;37387;42.672;23.334;2022-07-06T05:26:19;945.4;;;20.7;100.0
40013;BME280;37387;42.672;23.334;2022-07-06T05:28:19;945.4;;;20.9;99.1
40013;BME280;37387;42.672;23.334;2022-07-06T05:29:19;945.4;;;21.3;99.1
40013;BME280;37387;42.672;23.334;2022-07-06T05:30:19;945.4;;;22.3;97.5
40013;BME280;37387;42.672;23.334;2022-07-06T05:31:19;945.4;;;22.9;91.2
40013;BME280;37387;42.672;23.334;2022-07-06T05:32:19;945.4;;;23.7;85.5
40013;BME280;37387;42.672;23.334;2022-07-06T05:33:19;945.4;;;24.3;81.5
40013;BME280;37387;42.672;23.334;2022-07-06T05:34:19;945.5;;;24.5;76.6
40013;BME280;37387;42.672;23.334;2022-07-06T05:35:19;945.5;;;24.9;73.5
40013;BME280;37387;42.672;23.334;2022-07-06T05:36:19;945.5;;;25.2;73.5
40013;BME280;37387;42.672;23.334;2022-07-06T05:37:19;945.4;;;24.9;71.5
40013;BME280;37387;42.672;23.334;2022-07-06T05:38:19;945.5;;;25.0;70.7
40013;BME280;37387;42.672;23.334;2022-07-06T05:41:19;945.4;;;24.7;71.0
40013;BME280;37387;42.672;23.334;2022-07-06T05:43:19;945.4;;;24.6;72.5
40013;BME280;37387;42.672;23.334;2022-07-06T05:45:19;945.5;;;24.2;73.0
40013;BME280;37387;42.672;23.334;2022-07-06T05:46:19;945.5;;;24.6;75.1
40013;BME280;37387;42.672;23.334;2022-07-06T05:47:19;945.5;;;25.2;70.2
40013;BME280;37387;42.672;23.334;2022-07-06T05:48:19;945.5;;;25.5;70.2
40013;BME280;37387;42.672;23.334;2022-07-06T05:49:19;945.5;;;25.4;68.4
40013;BME280;37387;42.672;23.334;2022-07-06T05:50:19;945.5;;;25.5;68.7
40013;BME280;37387;42.672;23.334;2022-07-06T05:52:19;945.5;;;25.6;67.1
40013;BME280;37387;42.672;23.334;2022-07-06T05:53:19;945.6;;;26.2;66.1
40013;BME280;37387;42.672;23.334;2022-07-06T05:54:19;945.6;;;26.4;64.8
40013;BME280;37387;42.672;23.334;2022-07-06T05:56:19;945.6;;;26.5;62.6
40013;BME280;37387;42.672;23.334;2022-07-06T05:57:19;945.6;;;26.8;60.6
40013;BME280;37387;42.672;23.334;2022-07-06T05:58:19;945.6;;;26.2;63.0
40013;BME280;37387;42.672;23.334;2022-07-06T05:59:19;945.6;;;25.7;65.1
40013;BME280;37387;42.672;23.334;2022-07-06T06:01:19;945.6;;;25.2;67.3
40013;BME280;37387;42.672;23.334;2022-07-06T06:02:19;945.6;;;25.0;67.3
40013;BME280;37387;42.672;23.334;2022-07-06T06:03:19;945.6;;;24.1;68.9
40013;BME280;37387;42.672;23.334;2022-07-06T06:04:19;945.5;;;23.5;72.6
40013;BME280;37387;42.672;23.334;2022-07-06T06:05:19;945.5;;;23.7;75.8
40013;BME280;37387;42.672;23.334;2022-07-06T06:06:19;945.5;;;24.0;73.7
40013;BME280;37387;42.672;23.334;2022-07-06T06:07:19;945.5;;;23.3;73.7
40013;BME280;37387;42.672;23.334;2022-07-06T06:08:19;945.5;;;23.4;77.5
40013;BME280;37387;42.672;23.334;2022-07-06T06:10:19;945.5;;;23.2;79.0
40013;BME280;37387;42.672;23.334;2022-07-06T06:11:19;945.5;;;22.6;80.9
40013;BME280;37387;42.672;23.334;2022-07-06T06:12:19;945.5;;;22.5;80.9
40013;BME280;37387;42.672;23.334;2022-07-06T06:13:19;945.5;;;22.7;83.4
40013;BME280;37387;42.672;23.334;2022-07-06T06:17:19;945.5;;;22.5;82.6
40013;BME280;37387;42.672;23.334;2022-07-06T06:20:19;945.5;;;22.3;85.1
40013;BME280;37387;42.672;23.334;2022-07-06T06:21:19;945.5;;;22.0;86.0
40013;BME280;37387;42.672;23.334;2022-07-06T06:23:19;945.5;;;21.8;88.5
40013;BME280;37387;42.672;23.334;2022-07-06T06:24:19;945.5;;;21.5;88.5
40013;BME280;37387;42.672;23.334;2022-07-06T06:25:20;945.4;;;21.6;90.8
40013;BME280;37387;42.672;23.334;2022-07-06T06:26:19;945.4;;;21.5;89.8
40013;BME280;37387;42.672;23.334;2022-07-06T06:27:19;945.5;;;21.7;89.7
40013;BME280;37387;42.672;23.334;2022-07-06T06:28:19;945.5;;;21.6;89.7
40013;BME280;37387;42.672;23.334;2022-07-06T06:29:19;945.5;;;21.5;90.2
40013;BME280;37387;42.672;23.334;2022-07-06T06:33:19;945.5;;;21.6;90.9
40013;BME280;37387;42.672;23.334;2022-07-06T06:35:19;945.5;;;21.7;89.8
40013;BME280;37387;42.672;23.334;2022-07-06T06:36:19;945.5;;;21.6;89.8
40013;BME280;37387;42.672;23.334;2022-07-06T06:39:19;945.5;;;21.4;89.9
40013;BME280;37387;42.672;23.334;2022-07-06T06:40:19;945.5;;;21.1;91.5
40013;BME280;37387;42.672;23.334;2022-07-06T06:41:19;945.5;;;21.3;91.1
40013;BME280;37387;42.672;23.334;2022-07-06T06:42:19;945.4;;;21.4;91.1
40013;BME280;37387;42.672;23.334;2022-07-06T06:43:20;945.4;;;21.5;90.1
40013;BME280;37387;42.672;23.334;2022-07-06T06:44:19;945.4;;;21.7;89.0
40013;BME280;37387;42.672;23.334;2022-07-06T06:45:19;945.4;;;22.0;87.6
40013;BME280;37387;42.672;23.334;2022-07-06T06:46:19;945.4;;;22.1;87.6
40013;BME280;37387;42.672;23.334;2022-07-06T06:47:19;945.4;;;22.3;84.7
40013;BME280;37387;42.672;23.334;2022-07-06T06:48:19;945.4;;;22.6;83.8
40013;BME280;37387;42.672;23.334;2022-07-06T06:50:19;945.4;;;22.7;84.2
40013;BME280;37387;42.672;23.334;2022-07-06T06:51:19;945.4;;;22.8;81.8
40013;BME280;37387;42.672;23.334;2022-07-06T06:53:19;945.4;;;22.9;81.3
40013;BME280;37387;42.672;23.334;2022-07-06T06:54:19;945.4;;;23.1;79.8
40013;BME280;37387;42.672;23.334;2022-07-06T06:55:19;945.4;;;23.2;79.8
40013;BME280;37387;42.672;23.334;2022-07-06T06:56:19;945.4;;;23.5;79.0
40013;BME280;37387;42.672;23.334;2022-07-06T06:57:19;945.4;;;23.6;78.1
40013;BME280;37387;42.672;23.334;2022-07-06T06:59:19;945.5;;;23.7;77.3
40013;BME280;37387;42.672;23.334;2022-07-06T07:00:19;945.4;;;23.8;75.6
40013;BME280;37387;42.672;23.334;2022-07-06T07:01:19;945.4;;;24.2;75.6
40013;BME280;37387;42.672;23.334;2022-07-06T07:02:19;945.4;;;24.4;74.7
40013;BME280;37387;42.672;23.334;2022-07-06T07:03:19;945.4;;;24.2;72.6
40013;BME280;37387;42.672;23.334;2022-07-06T07:04:19;945.3;;;23.2;76.0
40013;BME280;37387;42.672;23.334;2022-07-06T07:05:19;945.3;;;22.9;76.0
40013;BME280;37387;42.672;23.334;2022-07-06T07:06:19;945.3;;;22.8;78.4
40013;BME280;37387;42.672;23.334;2022-07-06T07:07:19;945.3;;;23.0;79.4
40013;BME280;37387;42.672;23.334;2022-07-06T07:08:19;945.4;;;22.7;79.4
40013;BME280;37387;42.672;23.334;2022-07-06T07:09:19;945.4;;;22.8;81.2
40013;BME280;37387;42.672;23.334;2022-07-06T07:10:19;945.4;;;22.9;80.6
40013;BME280;37387;42.672;23.334;2022-07-06T07:12:19;945.4;;;22.8;80.8
40013;BME280;37387;42.672;23.334;2022-07-06T07:13:19;945.4;;;22.9;80.7
40013;BME280;37387;42.672;23.334;2022-07-06T07:14:19;945.4;;;23.0;81.5
40013;BME280;37387;42.672;23.334;2022-07-06T07:15:19;945.4;;;23.4;79.5
40013;BME280;37387;42.672;23.334;2022-07-06T07:16:19;945.5;;;23.7;76.3
40013;BME280;37387;42.672;23.334;2022-07-06T07:17:19;945.5;;;23.9;75.1
40013;BME280;37387;42.672;23.334;2022-07-06T07:18:19;945.5;;;23.8;75.1
40013;BME280;37387;42.672;23.334;2022-07-06T07:19:19;945.5;;;23.6;75.2
40013;BME280;37387;42.672;23.334;2022-07-06T07:23:19;945.5;;;23.7;76.6
40013;BME280;37387;42.672;23.334;2022-07-06T07:24:19;945.4;;;23.8;76.8
40013;BME280;37387;42.672;23.334;2022-07-06T07:25:19;945.4;;;23.7;76.4
40013;BME280;37387;42.672;23.334;2022-07-06T07:26:19;945.4;;;23.4;78.5
40013;BME280;37387;42.672;23.334;2022-07-06T07:27:19;945.4;;;23.6;77.3
40013;BME280;37387;42.672;23.334;2022-07-06T07:28:19;945.4;;;23.3;77.3
40013;BME280;37387;42.672;23.334;2022-07-06T07:31:19;945.4;;;23.5;78.2
40013;BME280;37387;42.672;23.334;2022-07-06T07:32:19;945.4;;;23.6;76.5
40013;BME280;37387;42.672;23.334;2022-07-06T07:33:19;945.4;;;23.5;75.3
40013;BME280;37387;42.672;23.334;2022-07-06T07:34:19;945.4;;;23.4;76.3
40013;BME280;37387;42.672;23.334;2022-07-06T07:35:19;945.4;;;23.3;75.8
40013;BME280;37387;42.672;23.334;2022-07-06T07:36:19;945.4;;;23.4;76.5
40013;BME280;37387;42.672;23.334;2022-07-06T07:37:19;945.4;;;23.5;76.1
40013;BME280;37387;42.672;23.334;2022-07-06T07:38:19;945.4;;;23.8;75.6
40013;BME280;37387;42.672;23.334;2022-07-06T07:39:19;945.4;;;23.6;74.6
40013;BME280;37387;42.672;23.334;2022-07-06T07:42:19;945.4;;;23.8;76.2
40013;BME280;37387;42.672;23.334;2022-07-06T07:43:19;945.4;;;23.6;75.6
40013;BME280;37387;42.672;23.334;2022-07-06T07:44:19;945.3;;;23.9;75.2
40013;BME280;37387;42.672;23.334;2022-07-06T07:45:19;945.3;;;24.3;75.1
40013;BME280;37387;42.672;23.334;2022-07-06T07:46:19;945.3;;;24.6;72.7
40013;BME280;37387;42.672;23.334;2022-07-06T07:47:19;945.4;;;25.3;68.9
40013;BME280;37387;42.672;23.334;2022-07-06T07:48:19;945.4;;;25.7;66.9
40013;BME280;37387;42.672;23.334;2022-07-06T07:49:19;945.4;;;26.0;65.3
40013;BME280;37387;42.672;23.334;2022-07-06T07:50:19;945.4;;;26.2;65.3
40013;BME280;37387;42.672;23.334;2022-07-06T07:51:19;945.4;;;26.0;64.7
40013;BME280;37387;42.672;23.334;2022-07-06T07:53:19;945.4;;;25.9;63.5
40013;BME280;37387;42.672;23.334;2022-07-06T07:54:19;945.4;;;26.4;63.5
40013;BME280;37387;42.672;23.334;2022-07-06T07:55:19;945.4;;;26.9;63.9
40013;BME280;37387;42.672;23.334;2022-07-06T07:56:19;945.4;;;27.6;58.5
40013;BME280;37387;42.672;23.334;2022-07-06T07:58:19;945.4;;;27.9;58.7
40013;BME280;37387;42.672;23.334;2022-07-06T07:59:19;945.4;;;28.0;55.7
40013;BME280;37387;42.672;23.334;2022-07-06T08:01:19;945.4;;;28.2;55.1
40013;BME280;37387;42.672;23.334;2022-07-06T08:02:19;945.4;;;28.5;55.1
40013;BME280;37387;42.672;23.334;2022-07-06T08:03:19;945.4;;;29.0;52.6
40013;BME280;37387;42.672;23.334;2022-07-06T08:04:19;945.4;;;28.9;52.6
40013;BME280;37387;42.672;23.334;2022-07-06T08:05:19;945.4;;;29.0;51.9
40013;BME280;37387;42.672;23.334;2022-07-06T08:06:19;945.4;;;29.8;51.9
40013;BME280;37387;42.672;23.334;2022-07-06T08:07:19;945.4;;;30.5;50.8
40013;BME280;37387;42.672;23.334;2022-07-06T08:08:19;945.5;;;30.0;49.9
40013;BME280;37387;42.672;23.334;2022-07-06T08:10:19;945.5;;;30.7;49.3
40013;BME280;37387;42.672;23.334;2022-07-06T08:11:19;945.5;;;30.9;47.3
40013;BME280;37387;42.672;23.334;2022-07-06T08:12:19;945.5;;;31.2;47.3
40013;BME280;37387;42.672;23.334;2022-07-06T08:13:19;945.5;;;30.6;47.2
40013;BME280;37387;42.672;23.334;2022-07-06T08:14:19;945.5;;;30.9;48.1
40013;BME280;37387;42.672;23.334;2022-07-06T08:15:19;945.5;;;31.7;47.7
40013;BME280;37387;42.672;23.334;2022-07-06T08:16:19;945.5;;;32.0;46.4
40013;BME280;37387;42.672;23.334;2022-07-06T08:17:19;945.5;;;31.8;45.6
40013;BME280;37387;42.672;23.334;2022-07-06T08:18:19;945.5;;;31.2;45.5
40013;BME280;37387;42.672;23.334;2022-07-06T08:19:19;945.6;;;31.7;46.8
40013;BME280;37387;42.672;23.334;2022-07-06T08:20:19;945.6;;;31.9;45.4
40013;BME280;37387;42.672;23.334;2022-07-06T08:21:19;945.5;;;32.2;44.5
40013;BME280;37387;42.672;23.334;2022-07-06T08:22:19;945.5;;;30.9;44.5
40013;BME280;37387;42.672;23.334;2022-07-06T08:23:19;945.5;;;30.7;46.8
40013;BME280;37387;42.672;23.334;2022-07-06T08:24:19;945.5;;;30.6;47.4
40013;BME280;37387;42.672;23.334;2022-07-06T08:25:19;945.5;;;29.9;48.2
40013;BME280;37387;42.672;23.334;2022-07-06T08:26:19;945.4;;;29.1;48.2
40013;BME280;37387;42.672;23.334;2022-07-06T08:27:19;945.4;;;28.9;49.8
40013;BME280;37387;42.672;23.334;2022-07-06T08:28:19;945.4;;;28.3;51.6
40013;BME280;37387;42.672;23.334;2022-07-06T08:29:19;945.4;;;27.9;51.6
40013;BME280;37387;42.672;23.334;2022-07-06T08:30:19;945.3;;;27.8;53.2
40013;BME280;37387;42.672;23.334;2022-07-06T08:31:19;945.4;;;28.5;52.0
40013;BME280;37387;42.672;23.334;2022-07-06T08:32:19;945.4;;;29.8;52.0
40013;BME280;37387;42.672;23.334;2022-07-06T08:35:19;945.5;;;30.2;48.7
40013;BME280;37387;42.672;23.334;2022-07-06T08:37:19;945.4;;;30.0;47.5
40013;BME280;37387;42.672;23.334;2022-07-06T08:38:19;945.4;;;29.7;48.3
40013;BME280;37387;42.672;23.334;2022-07-06T08:39:19;945.4;;;30.0;48.0
40013;BME280;37387;42.672;23.334;2022-07-06T08:40:19;945.4;;;29.8;48.0
40013;BME280;37387;42.672;23.334;2022-07-06T08:41:21;945.4;;;30.1;48.6
40013;BME280;37387;42.672;23.334;2022-07-06T08:42:19;945.3;;;29.7;48.4
40013;BME280;37387;42.672;23.334;2022-07-06T08:43:19;945.3;;;28.9;49.8
40013;BME280;37387;42.672;23.334;2022-07-06T08:44:19;945.3;;;28.5;51.4
40013;BME280;37387;42.672;23.334;2022-07-06T08:45:19;945.3;;;28.1;52.4
40013;BME280;37387;42.672;23.334;2022-07-06T08:46:19;945.3;;;28.0;55.1
40013;BME280;37387;42.672;23.334;2022-07-06T08:48:19;945.3;;;28.2;55.3
40013;BME280;37387;42.672;23.334;2022-07-06T08:49:19;945.3;;;28.6;54.4
40013;BME280;37387;42.672;23.334;2022-07-06T08:50:19;945.3;;;29.1;53.3
40013;BME280;37387;42.672;23.334;2022-07-06T08:52:19;945.4;;;29.5;51.7
40013;BME280;37387;42.672;23.334;2022-07-06T08:53:19;945.4;;;29.7;50.6
40013;BME280;37387;42.672;23.334;2022-07-06T08:54:19;945.4;;;29.6;50.6
40013;BME280;37387;42.672;23.334;2022-07-06T08:55:19;945.3;;;29.5;49.7
40013;BME280;37387;42.672;23.334;2022-07-06T08:56:19;945.3;;;29.6;49.7
40013;BME280;37387;42.672;23.334;2022-07-06T08:57:19;945.3;;;29.7;49.2
40013;BME280;37387;42.672;23.334;2022-07-06T08:58:19;945.4;;;29.8;49.1
40013;BME280;37387;42.672;23.334;2022-07-06T08:59:19;945.4;;;30.3;48.8
40013;BME280;37387;42.672;23.334;2022-07-06T09:00:19;945.5;;;31.0;48.8
40013;BME280;37387;42.672;23.334;2022-07-06T09:02:19;945.4;;;31.2;47.4
40013;BME280;37387;42.672;23.334;2022-07-06T09:03:19;945.4;;;31.0;46.9
40013;BME280;37387;42.672;23.334;2022-07-06T09:04:19;945.4;;;30.5;46.7
40013;BME280;37387;42.672;23.334;2022-07-06T09:05:21;945.3;;;29.7;50.3
40013;BME280;37387;42.672;23.334;2022-07-06T09:06:19;945.3;;;29.1;50.3
40013;BME280;37387;42.672;23.334;2022-07-06T09:07:19;945.2;;;29.0;50.9
40013;BME280;37387;42.672;23.334;2022-07-06T09:08:20;945.3;;;28.5;53.3
40013;BME280;37387;42.672;23.334;2022-07-06T09:09:19;945.3;;;27.9;53.3
40013;BME280;37387;42.672;23.334;2022-07-06T09:10:20;945.3;;;28.1;55.2
40013;BME280;37387;42.672;23.334;2022-07-06T09:11:19;945.3;;;27.8;55.0
40013;BME280;37387;42.672;23.334;2022-07-06T09:12:19;945.3;;;27.4;55.5
40013;BME280;37387;42.672;23.334;2022-07-06T09:13:19;945.3;;;27.1;58.3
40013;BME280;37387;42.672;23.334;2022-07-06T09:14:19;945.3;;;27.0;58.3
40013;BME280;37387;42.672;23.334;2022-07-06T09:16:24;945.2;;;26.6;57.6
40013;BME280;37387;42.672;23.334;2022-07-06T09:17:19;945.1;;;26.4;59.9
40013;BME280;37387;42.672;23.334;2022-07-06T09:18:20;945.2;;;26.6;59.9
40013;BME280;37387;42.672;23.334;2022-07-06T09:20:20;945.1;;;26.5;60.6
40013;BME280;37387;42.672;23.334;2022-07-06T09:21:22;945.2;;;26.4;60.6
40013;BME280;37387;42.672;23.334;2022-07-06T09:22:27;945.2;;;26.2;61.6
40013;BME280;37387;42.672;23.334;2022-07-06T09:23:19;945.3;;;26.3;62.2